Weather at Akhisar TSA Airfield

Public forecast

Using degrees Celsius for public forecast. Weather courtesy of forecast.io.

Closest aviation weather report (METAR) to Akhisar TSA Airfield

Report is more than 6 hours old.

Closest report is Akhisar Airport, 10.1 nm (18.8 km) S.

2022/11/14 14:50 (retrieved 2 years ago)

LTBT 141450Z 36008KT 330V040 CAVOK 17/06 Q1019 RMK RWY13 36008KT

Closest aviation forecast (TAF) to Akhisar TSA Airfield

Forecast is more than 12 hours old.

Closest forecast is Adnan Menderes International Airport, 52.5 nm (97.2 km) SW.

2023/02/22 18:03 (retrieved 1 year ago)

TAF LTBJ 221640Z 2218/2318 VRB02KT 7000 NSC BECMG 2222/2302 3200 BR SCT010 PROB40 2302/2306 0300 FG VV001 BECMG 2307/2310 CAVOK BECMG 2310/2312 FEW030 BECMG 2313/2315 CAVOK TEMPO 2313/2317 35012KT